Time;durP1;ratioP1;P1;durP2;ratioP2;P2;SDS_P1;SDS_P2;PMS_P1;PMS_P2;Temp;Humidity;BMP_temperature;BMP_pressure;BME280_temperature;BME280_humidity;BME280_pressure;Samples;Min_cycle;Max_cycle;Signal;HPM_P1;HPM_P2
2021/08/24 00:01:55;;;;;;;5.25;2.92;;;;;;;;;;5031895;28;20048;-81
2021/08/24 00:04:20;;;;;;;5.65;2.92;;;;;;;;;;5031489;28;20025;-81
2021/08/24 00:06:45;;;;;;;4.57;2.80;;;;;;;;;;5017579;28;20052;-81
2021/08/24 00:09:11;;;;;;;4.63;2.70;;;;;;;;;;5035870;28;20420;-81
2021/08/24 00:11:36;;;;;;;5.32;2.90;;;;;;;;;;5045411;28;20029;-81
2021/08/24 00:14:05;;;;;;;4.15;2.80;;;;;;;;;;5019329;28;20029;-81
2021/08/24 00:16:31;;;;;;;4.13;2.60;;;;;;;;;;5035746;28;20084;-81
2021/08/24 00:18:56;;;;;;;5.20;2.42;;;;;;;;;;5018933;28;20056;-81
2021/08/24 00:21:22;;;;;;;4.55;2.58;;;;;;;;;;5016340;28;20018;-81
2021/08/24 00:23:47;;;;;;;4.38;2.58;;;;;;;;;;5036868;28;20037;-81
2021/08/24 00:26:12;;;;;;;4.38;2.90;;;;;;;;;;5018955;28;20121;-81
2021/08/24 00:28:38;;;;;;;3.65;2.53;;;;;;;;;;5035392;28;20432;-81
2021/08/24 00:31:03;;;;;;;4.70;2.60;;;;;;;;;;5015773;28;20031;-81
2021/08/24 00:33:28;;;;;;;6.70;3.00;;;;;;;;;;5032811;28;20021;-81
2021/08/24 00:35:54;;;;;;;7.50;3.20;;;;;;;;;;5018974;28;20048;-81
2021/08/24 00:38:22;;;;;;;5.60;2.75;;;;;;;;;;5035404;28;20128;-81
2021/08/24 00:41:02;;;;;;;4.75;3.00;;;;;;;;;;5022829;28;20503;-81
2021/08/24 00:43:30;;;;;;;6.10;3.00;;;;;;;;;;5034961;28;20071;-81
2021/08/24 00:46:03;;;;;;;4.47;2.80;;;;;;;;;;5035143;28;20074;-81
2021/08/24 00:48:32;;;;;;;5.32;2.45;;;;;;;;;;5035063;28;20022;-81
2021/08/24 00:50:58;;;;;;;4.40;2.53;;;;;;;;;;5031768;28;20036;-81
2021/08/24 00:53:27;;;;;;;4.65;2.80;;;;;;;;;;4997883;28;20033;-81
2021/08/24 00:55:56;;;;;;;6.63;2.90;;;;;;;;;;5034809;28;20018;-81
2021/08/24 00:58:22;;;;;;;4.80;2.80;;;;;;;;;;5035129;28;20436;-81
2021/08/24 01:00:48;;;;;;;7.07;2.83;;;;;;;;;;5035993;28;20025;-81
2021/08/24 01:03:18;;;;;;;6.13;2.55;;;;;;;;;;5015864;28;20073;-81
2021/08/24 01:05:46;;;;;;;5.22;2.60;;;;;;;;;;5026070;28;20021;-81
2021/08/24 01:08:40;;;;;;;4.05;2.50;;;;;;;;;;5026299;28;20473;-81
2021/08/24 01:11:37;;;;;;;3.33;2.10;;;;;;;;;;5044057;28;20017;-81
2021/08/24 01:14:27;;;;;;;4.60;2.70;;;;;;;;;;5034627;28;20025;-81
2021/08/24 01:17:03;;;;;;;4.60;2.40;;;;;;;;;;5033975;28;20056;-81
2021/08/24 01:20:11;;;;;;;6.70;2.50;;;;;;;;;;5034034;28;20037;-81
2021/08/24 01:23:15;;;;;;;5.57;2.60;;;;;;;;;;5029387;28;20493;-81
2021/08/24 01:25:54;;;;;;;4.75;2.35;;;;;;;;;;5034236;28;20084;-81
2021/08/24 01:28:28;;;;;;;7.28;2.30;;;;;;;;;;5035647;28;20025;-81
2021/08/24 01:31:46;;;;;;;4.43;2.80;;;;;;;;;;5034146;28;20071;-81
2021/08/24 01:34:49;;;;;;;10.63;2.97;;;;;;;;;;5028609;28;20021;-81
2021/08/24 01:37:42;;;;;;;4.88;2.50;;;;;;;;;;5026812;28;20028;-81
2021/08/24 01:40:14;;;;;;;5.27;2.43;;;;;;;;;;5035278;28;20018;-81
2021/08/24 01:42:41;;;;;;;5.13;2.58;;;;;;;;;;5035189;28;20108;-81
2021/08/24 01:45:20;;;;;;;4.15;2.17;;;;;;;;;;5030738;28;20431;-81
2021/08/24 01:47:57;;;;;;;4.38;2.45;;;;;;;;;;5027147;28;20037;-81
2021/08/24 01:50:29;;;;;;;4.00;2.42;;;;;;;;;;5033878;28;20113;-81
2021/08/24 01:53:24;;;;;;;4.93;2.45;;;;;;;;;;5034060;28;20029;-81
2021/08/24 01:55:53;;;;;;;4.63;2.50;;;;;;;;;;5024646;28;20495;-81
2021/08/24 01:58:32;;;;;;;4.75;2.55;;;;;;;;;;5034907;28;20491;-81
2021/08/24 02:01:01;;;;;;;6.38;2.50;;;;;;;;;;5034857;28;20531;-81
2021/08/24 02:03:36;;;;;;;4.70;2.40;;;;;;;;;;5017807;28;20041;-81
2021/08/24 02:06:26;;;;;;;4.28;2.30;;;;;;;;;;5033336;28;20021;-81
2021/08/24 02:08:55;;;;;;;4.90;2.45;;;;;;;;;;5034833;28;20143;-81
2021/08/24 02:11:22;;;;;;;4.82;2.72;;;;;;;;;;5047278;28;20036;-81
2021/08/24 02:13:50;;;;;;;3.72;2.20;;;;;;;;;;5034847;28;20064;-81
2021/08/24 02:16:21;;;;;;;4.90;2.45;;;;;;;;;;5034619;28;20068;-81
2021/08/24 02:18:55;;;;;;;4.95;2.35;;;;;;;;;;5033241;28;20036;-81
2021/08/24 02:21:29;;;;;;;5.28;2.60;;;;;;;;;;5033311;28;20021;-81
2021/08/24 02:23:59;;;;;;;4.97;2.55;;;;;;;;;;5030233;28;20029;-81
2021/08/24 02:26:27;;;;;;;5.97;2.83;;;;;;;;;;5026641;28;20053;-81
2021/08/24 02:28:58;;;;;;;4.93;2.35;;;;;;;;;;5033126;28;20115;-81
2021/08/24 02:31:29;;;;;;;5.70;2.47;;;;;;;;;;5033004;28;20025;-81
2021/08/24 02:34:17;;;;;;;4.93;2.67;;;;;;;;;;5034367;28;20516;-81
2021/08/24 02:36:59;;;;;;;5.68;2.47;;;;;;;;;;5034448;28;20026;-81
2021/08/24 02:39:33;;;;;;;3.70;2.47;;;;;;;;;;5029744;28;20026;-81
2021/08/24 02:42:28;;;;;;;4.25;2.28;;;;;;;;;;5031875;28;20021;-81
2021/08/24 02:45:00;;;;;;;4.22;2.35;;;;;;;;;;5033255;28;20560;-81
2021/08/24 02:47:27;;;;;;;3.77;2.40;;;;;;;;;;5029882;28;20041;-80
2021/08/24 02:49:53;;;;;;;4.28;2.30;;;;;;;;;;5021639;28;20298;-80
2021/08/24 02:52:19;;;;;;;4.18;2.28;;;;;;;;;;5016435;28;20029;-80
2021/08/24 02:54:47;;;;;;;6.57;3.25;;;;;;;;;;5032939;28;20032;-80
2021/08/24 02:57:14;;;;;;;5.97;2.50;;;;;;;;;;5016144;28;20477;-80
2021/08/24 02:59:40;;;;;;;4.90;2.33;;;;;;;;;;5034040;28;20457;-80
2021/08/24 03:02:07;;;;;;;5.90;2.40;;;;;;;;;;5032516;28;20096;-81
2021/08/24 03:04:32;;;;;;;8.75;2.60;;;;;;;;;;5033859;28;20381;-81
2021/08/24 03:07:10;;;;;;;7.43;2.92;;;;;;;;;;4996391;28;20034;-81
2021/08/24 03:09:36;;;;;;;5.50;2.58;;;;;;;;;;5031940;28;20032;-81
2021/08/24 03:12:17;;;;;;;4.35;2.97;;;;;;;;;;5032338;28;20112;-81
2021/08/24 03:14:50;;;;;;;5.95;2.80;;;;;;;;;;5033767;28;20082;-81
2021/08/24 03:17:29;;;;;;;6.28;2.70;;;;;;;;;;5032266;28;20041;-81
2021/08/24 03:19:59;;;;;;;5.18;2.95;;;;;;;;;;5026222;28;20469;-81
2021/08/24 03:22:25;;;;;;;9.80;4.45;;;;;;;;;;5032418;28;20040;-81
2021/08/24 03:24:51;;;;;;;4.88;2.90;;;;;;;;;;5015873;28;20061;-81
2021/08/24 03:27:16;;;;;;;5.55;3.30;;;;;;;;;;5033296;28;20029;-81
2021/08/24 03:29:56;;;;;;;5.07;3.05;;;;;;;;;;5015538;28;20039;-81
2021/08/24 03:32:21;;;;;;;4.97;3.05;;;;;;;;;;5033341;28;20035;-81
2021/08/24 03:34:46;;;;;;;9.70;3.47;;;;;;;;;;5032179;28;20572;-81
2021/08/24 03:37:12;;;;;;;5.30;3.00;;;;;;;;;;5015485;28;20037;-81
2021/08/24 03:39:37;;;;;;;5.20;3.22;;;;;;;;;;5033234;28;20536;-81
2021/08/24 03:42:03;;;;;;;6.47;3.40;;;;;;;;;;5014766;28;20049;-81
2021/08/24 03:44:29;;;;;;;6.43;3.35;;;;;;;;;;5033225;28;20488;-81
2021/08/24 03:46:55;;;;;;;7.05;3.40;;;;;;;;;;5031683;28;20037;-81
2021/08/24 03:49:20;;;;;;;5.22;3.17;;;;;;;;;;5033215;28;20091;-81
2021/08/24 03:51:45;;;;;;;5.22;3.38;;;;;;;;;;5015313;28;20035;-81
2021/08/24 03:54:11;;;;;;;6.60;3.50;;;;;;;;;;5031760;28;20025;-81
2021/08/24 03:56:36;;;;;;;7.15;3.63;;;;;;;;;;5031696;28;20029;-81
2021/08/24 03:59:02;;;;;;;5.72;3.38;;;;;;;;;;5019985;28;20352;-81
2021/08/24 04:01:28;;;;;;;5.95;3.72;;;;;;;;;;5031988;28;20072;-81
2021/08/24 04:03:53;;;;;;;8.35;3.83;;;;;;;;;;5015230;28;20041;-81
2021/08/24 04:06:18;;;;;;;7.53;3.95;;;;;;;;;;5015348;28;20076;-81
2021/08/24 04:08:44;;;;;;;6.63;3.70;;;;;;;;;;4998218;28;20052;-81
2021/08/24 04:11:09;;;;;;;7.72;3.60;;;;;;;;;;5027332;28;20068;-81
2021/08/24 04:13:35;;;;;;;7.78;3.35;;;;;;;;;;5015414;28;20030;-81
2021/08/24 04:16:06;;;;;;;7.78;3.63;;;;;;;;;;5029366;28;20037;-81
2021/08/24 04:18:31;;;;;;;8.95;4.03;;;;;;;;;;5028409;28;20549;-81
2021/08/24 04:20:57;;;;;;;6.78;3.72;;;;;;;;;;5021379;28;20116;-81
2021/08/24 04:23:23;;;;;;;6.25;3.58;;;;;;;;;;5015241;28;20036;-81
2021/08/24 04:25:49;;;;;;;7.93;3.92;;;;;;;;;;5032690;28;20461;-81
2021/08/24 04:28:14;;;;;;;6.15;3.40;;;;;;;;;;5031528;28;20030;-81
2021/08/24 04:30:40;;;;;;;8.13;3.90;;;;;;;;;;5032709;28;20485;-81
2021/08/24 04:33:05;;;;;;;6.07;4.18;;;;;;;;;;5014848;28;20033;-81
2021/08/24 04:35:30;;;;;;;9.13;3.50;;;;;;;;;;5015071;28;20026;-81
2021/08/24 04:37:56;;;;;;;6.25;3.47;;;;;;;;;;5015045;28;20403;-81
2021/08/24 04:40:21;;;;;;;6.93;3.78;;;;;;;;;;5012054;28;20057;-81
2021/08/24 04:42:47;;;;;;;8.57;4.10;;;;;;;;;;4991482;28;20090;-81
2021/08/24 04:45:13;;;;;;;6.03;3.88;;;;;;;;;;5014910;28;20357;-81
2021/08/24 04:47:39;;;;;;;8.75;3.97;;;;;;;;;;5028074;28;20030;-81
2021/08/24 04:50:06;;;;;;;7.50;3.65;;;;;;;;;;5025626;28;20029;-81
2021/08/24 04:52:32;;;;;;;7.38;4.18;;;;;;;;;;5032799;28;20106;-81
2021/08/24 04:54:57;;;;;;;5.45;3.90;;;;;;;;;;5036413;28;20056;-81
2021/08/24 04:57:23;;;;;;;8.27;4.15;;;;;;;;;;5018803;28;20429;-81
2021/08/24 04:59:48;;;;;;;6.90;4.20;;;;;;;;;;5000584;28;20053;-81
2021/08/24 05:02:14;;;;;;;7.28;4.10;;;;;;;;;;5036150;28;20029;-81
2021/08/24 05:04:39;;;;;;;9.52;4.63;;;;;;;;;;5035029;28;20091;-81
2021/08/24 05:07:05;;;;;;;7.97;4.43;;;;;;;;;;5002389;28;20480;-81
2021/08/24 05:09:31;;;;;;;7.07;4.50;;;;;;;;;;5018248;28;20096;-81
2021/08/24 05:11:56;;;;;;;7.32;4.40;;;;;;;;;;5035927;28;20060;-81
2021/08/24 05:14:23;;;;;;;7.25;4.53;;;;;;;;;;5001832;28;20033;-81
2021/08/24 05:16:56;;;;;;;11.07;5.00;;;;;;;;;;5017948;28;20427;-81
2021/08/24 05:19:21;;;;;;;8.95;4.90;;;;;;;;;;5035762;28;20124;-81
2021/08/24 05:21:47;;;;;;;8.65;4.80;;;;;;;;;;5034621;28;20124;-81
2021/08/24 05:24:13;;;;;;;8.95;5.28;;;;;;;;;;5034661;28;20040;-81
2021/08/24 05:26:38;;;;;;;10.85;5.00;;;;;;;;;;5035527;28;20029;-80
2021/08/24 05:29:04;;;;;;;7.78;4.95;;;;;;;;;;5018076;28;20030;-80
2021/08/24 05:31:29;;;;;;;7.68;4.90;;;;;;;;;;5017734;28;20033;-80
2021/08/24 05:33:54;;;;;;;7.15;4.90;;;;;;;;;;5034461;28;20030;-80
2021/08/24 05:36:20;;;;;;;10.50;4.60;;;;;;;;;;5034454;28;20366;-81
2021/08/24 05:38:46;;;;;;;8.90;4.88;;;;;;;;;;5034042;28;20381;-81
2021/08/24 05:41:11;;;;;;;7.30;4.72;;;;;;;;;;5034121;28;20028;-81
2021/08/24 05:43:36;;;;;;;7.47;5.25;;;;;;;;;;5033920;28;20499;-81
2021/08/24 05:46:05;;;;;;;6.70;4.32;;;;;;;;;;5014446;28;20432;-81
2021/08/24 05:48:32;;;;;;;7.32;4.90;;;;;;;;;;5031482;28;20021;-81
2021/08/24 05:50:58;;;;;;;9.15;4.80;;;;;;;;;;5035417;28;20028;-81
2021/08/24 05:53:24;;;;;;;8.60;4.90;;;;;;;;;;5014115;28;20482;-81
2021/08/24 05:55:49;;;;;;;9.73;4.68;;;;;;;;;;5032500;28;20041;-81
2021/08/24 05:58:15;;;;;;;6.50;4.80;;;;;;;;;;5033905;28;20025;-81
2021/08/24 06:00:41;;;;;;;7.93;5.03;;;;;;;;;;5035150;28;20037;-81
2021/08/24 06:03:07;;;;;;;8.73;5.15;;;;;;;;;;5030312;28;20025;-81
2021/08/24 06:05:40;;;;;;;8.23;5.20;;;;;;;;;;5012079;28;20025;-81
2021/08/24 06:08:07;;;;;;;10.57;5.38;;;;;;;;;;5034760;28;20116;-81
2021/08/24 06:10:37;;;;;;;7.18;4.55;;;;;;;;;;5040892;28;20138;-81
2021/08/24 06:13:04;;;;;;;10.85;4.85;;;;;;;;;;5023029;28;20406;-81
2021/08/24 06:15:29;;;;;;;9.48;5.18;;;;;;;;;;5014206;28;20030;-81
2021/08/24 06:17:55;;;;;;;8.45;4.85;;;;;;;;;;5029841;28;20057;-80
2021/08/24 06:20:20;;;;;;;7.70;4.60;;;;;;;;;;5017065;28;20465;-80
2021/08/24 06:22:46;;;;;;;10.50;4.90;;;;;;;;;;5017084;28;20029;-80
2021/08/24 06:25:11;;;;;;;7.65;5.00;;;;;;;;;;5013651;28;20029;-80
2021/08/24 06:27:37;;;;;;;7.47;4.95;;;;;;;;;;5013934;28;20143;-80
2021/08/24 06:30:04;;;;;;;6.72;4.88;;;;;;;;;;5033304;28;20025;-80
2021/08/24 06:32:33;;;;;;;6.82;4.75;;;;;;;;;;5030042;28;20559;-80
2021/08/24 06:35:00;;;;;;;11.68;5.32;;;;;;;;;;5031012;28;20025;-80
2021/08/24 06:37:26;;;;;;;7.57;4.90;;;;;;;;;;5034514;28;20030;-80
2021/08/24 06:39:52;;;;;;;10.02;4.75;;;;;;;;;;5034339;28;20027;-80
2021/08/24 06:42:17;;;;;;;8.50;4.80;;;;;;;;;;5033155;28;20116;-80
2021/08/24 06:44:43;;;;;;;9.27;4.95;;;;;;;;;;5026920;28;20057;-80
2021/08/24 06:47:08;;;;;;;8.60;5.30;;;;;;;;;;5033107;28;20568;-80
2021/08/24 06:49:34;;;;;;;8.43;5.20;;;;;;;;;;5000010;28;20116;-80
2021/08/24 06:51:59;;;;;;;9.80;5.70;;;;;;;;;;5033164;28;20033;-80
2021/08/24 06:54:25;;;;;;;10.77;4.53;;;;;;;;;;5034148;28;20543;-80
2021/08/24 06:56:51;;;;;;;7.63;5.32;;;;;;;;;;5016433;28;20037;-80
2021/08/24 06:59:17;;;;;;;8.73;5.35;;;;;;;;;;5032740;28;20036;-80
2021/08/24 07:01:43;;;;;;;10.27;5.45;;;;;;;;;;5034297;28;20389;-80
2021/08/24 07:04:09;;;;;;;10.23;6.30;;;;;;;;;;5034065;28;20021;-80
2021/08/24 07:06:35;;;;;;;10.57;5.82;;;;;;;;;;5033982;28;20017;-80
2021/08/24 07:09:00;;;;;;;10.77;5.78;;;;;;;;;;5034164;28;20120;-80
2021/08/24 07:11:27;;;;;;;11.20;6.30;;;;;;;;;;5032807;28;20037;-80
2021/08/24 07:13:57;;;;;;;10.60;5.72;;;;;;;;;;5016048;28;20040;-80
2021/08/24 07:16:24;;;;;;;8.55;5.93;;;;;;;;;;5028607;28;20429;-80
2021/08/24 07:18:54;;;;;;;9.55;6.47;;;;;;;;;;5017446;28;20018;-80
2021/08/24 07:21:20;;;;;;;12.13;6.45;;;;;;;;;;5032787;28;20028;-80
2021/08/24 07:23:46;;;;;;;7.60;5.80;;;;;;;;;;5015749;28;20033;-80
2021/08/24 07:26:13;;;;;;;10.98;5.90;;;;;;;;;;4999975;28;20043;-80
2021/08/24 07:28:39;;;;;;;10.00;6.55;;;;;;;;;;5033532;28;20024;-80
2021/08/24 07:31:05;;;;;;;9.30;6.25;;;;;;;;;;5033476;28;20432;-80
2021/08/24 07:33:31;;;;;;;11.75;6.63;;;;;;;;;;5029036;28;20458;-80
2021/08/24 07:35:58;;;;;;;9.73;5.88;;;;;;;;;;5015823;28;20112;-80
2021/08/24 07:38:24;;;;;;;12.02;6.82;;;;;;;;;;5033328;28;20261;-80
2021/08/24 07:40:49;;;;;;;10.27;6.72;;;;;;;;;;5033239;28;20032;-80
2021/08/24 07:43:15;;;;;;;10.27;7.03;;;;;;;;;;5028827;28;20114;-80
2021/08/24 07:45:41;;;;;;;9.27;6.80;;;;;;;;;;5032150;28;20113;-80
2021/08/24 07:48:06;;;;;;;11.82;6.78;;;;;;;;;;5032139;28;20037;-80
2021/08/24 07:50:32;;;;;;;11.15;7.22;;;;;;;;;;5031984;28;20029;-80
2021/08/24 07:52:58;;;;;;;10.30;7.15;;;;;;;;;;5033140;28;20025;-80
2021/08/24 07:55:23;;;;;;;10.27;6.20;;;;;;;;;;5012571;28;20036;-80
2021/08/24 07:57:49;;;;;;;13.95;6.90;;;;;;;;;;5029547;28;20030;-80
2021/08/24 08:00:15;;;;;;;12.02;6.85;;;;;;;;;;4995576;28;20045;-80
2021/08/24 08:02:40;;;;;;;11.40;7.00;;;;;;;;;;5045392;28;20084;-80
2021/08/24 08:05:06;;;;;;;11.65;6.50;;;;;;;;;;5033070;28;20030;-80
2021/08/24 08:07:32;;;;;;;9.65;6.82;;;;;;;;;;5011998;28;20385;-80
2021/08/24 08:09:57;;;;;;;10.15;6.70;;;;;;;;;;5025575;28;20028;-80
2021/08/24 08:12:23;;;;;;;9.50;6.05;;;;;;;;;;5032874;28;20374;-80
2021/08/24 08:14:48;;;;;;;11.73;6.70;;;;;;;;;;5015615;28;20034;-80
2021/08/24 08:17:14;;;;;;;11.20;6.50;;;;;;;;;;5031661;28;20072;-80
2021/08/24 08:19:39;;;;;;;12.60;6.40;;;;;;;;;;5031572;28;20492;-80
2021/08/24 08:22:07;;;;;;;9.27;5.85;;;;;;;;;;5012001;28;20052;-80
2021/08/24 08:24:33;;;;;;;8.52;5.80;;;;;;;;;;5026780;28;20108;-80
2021/08/24 08:26:59;;;;;;;11.70;6.15;;;;;;;;;;5032777;28;20025;-80
2021/08/24 08:29:24;;;;;;;7.15;5.78;;;;;;;;;;5035786;28;20086;-80
2021/08/24 08:31:50;;;;;;;11.15;5.72;;;;;;;;;;5035423;28;20064;-80
2021/08/24 08:34:18;;;;;;;9.55;6.00;;;;;;;;;;5035701;28;20037;-80
2021/08/24 08:36:45;;;;;;;11.90;5.65;;;;;;;;;;5036967;28;20032;-80
2021/08/24 08:39:12;;;;;;;10.07;5.60;;;;;;;;;;5035751;28;20021;-80
2021/08/24 08:41:46;;;;;;;7.47;5.18;;;;;;;;;;5019273;28;20494;-80
2021/08/24 08:44:48;;;;;;;10.55;5.10;;;;;;;;;;5036580;28;20030;-81
2021/08/24 08:47:49;;;;;;;8.52;4.85;;;;;;;;;;5036547;28;20030;-81
2021/08/24 08:50:45;;;;;;;8.30;4.88;;;;;;;;;;5035969;28;20029;-81
2021/08/24 08:53:34;;;;;;;6.30;4.40;;;;;;;;;;5032178;28;20041;-81
2021/08/24 08:56:15;;;;;;;6.15;3.92;;;;;;;;;;5035372;28;20048;-81
2021/08/24 08:58:50;;;;;;;10.30;4.10;;;;;;;;;;5022329;28;20028;-81
2021/08/24 09:01:35;;;;;;;7.43;4.20;;;;;;;;;;5036578;28;20032;-81
2021/08/24 09:04:16;;;;;;;6.90;3.88;;;;;;;;;;5029440;28;20048;-81
2021/08/24 09:06:44;;;;;;;6.80;4.22;;;;;;;;;;5035153;28;20075;-81
2021/08/24 09:09:09;;;;;;;8.20;4.20;;;;;;;;;;5036341;28;20021;-81
2021/08/24 09:11:43;;;;;;;8.43;3.85;;;;;;;;;;5019218;28;20034;-81
2021/08/24 09:14:16;;;;;;;6.88;4.10;;;;;;;;;;5033910;28;20037;-81
2021/08/24 09:16:52;;;;;;;8.25;3.53;;;;;;;;;;5036393;28;20060;-81
2021/08/24 09:19:25;;;;;;;7.18;3.88;;;;;;;;;;5036299;28;20029;-81
2021/08/24 09:21:51;;;;;;;5.70;4.07;;;;;;;;;;5031867;28;20084;-81
2021/08/24 09:24:28;;;;;;;7.70;4.40;;;;;;;;;;5030024;28;20041;-81
2021/08/24 09:27:04;;;;;;;9.63;4.18;;;;;;;;;;5035976;28;20075;-81
2021/08/24 09:29:50;;;;;;;7.28;4.32;;;;;;;;;;5035419;28;20025;-81
2021/08/24 09:32:23;;;;;;;7.95;4.30;;;;;;;;;;5028940;28;20108;-81
2021/08/24 09:34:51;;;;;;;6.47;4.45;;;;;;;;;;5027607;28;20029;-81
2021/08/24 09:37:21;;;;;;;8.38;3.78;;;;;;;;;;5035524;28;20029;-81
2021/08/24 09:39:58;;;;;;;7.63;4.45;;;;;;;;;;5034566;28;20121;-81
2021/08/24 09:42:34;;;;;;;6.28;3.58;;;;;;;;;;5031205;28;20026;-81
2021/08/24 09:45:06;;;;;;;7.53;3.63;;;;;;;;;;5021681;28;20031;-81
2021/08/24 09:47:32;;;;;;;5.47;3.30;;;;;;;;;;5033490;28;20389;-81
2021/08/24 09:50:01;;;;;;;6.57;3.67;;;;;;;;;;5035317;28;20033;-81
2021/08/24 09:52:29;;;;;;;6.50;3.40;;;;;;;;;;5031706;28;20030;-81
2021/08/24 09:55:00;;;;;;;6.30;3.70;;;;;;;;;;5030694;28;20030;-82
2021/08/24 09:57:29;;;;;;;6.00;3.60;;;;;;;;;;5034363;28;20028;-82
2021/08/24 10:00:34;;;;;;;7.10;3.47;;;;;;;;;;5035073;28;20469;-82
2021/08/24 10:02:59;;;;;;;7.03;3.40;;;;;;;;;;5033886;28;20029;-82
2021/08/24 10:05:24;;;;;;;7.72;3.20;;;;;;;;;;5033737;28;20453;-82
2021/08/24 10:07:57;;;;;;;6.20;3.58;;;;;;;;;;5035060;28;20100;-82
2021/08/24 10:10:30;;;;;;;7.25;3.30;;;;;;;;;;5021049;28;20108;-82
2021/08/24 10:12:58;;;;;;;7.03;3.20;;;;;;;;;;5032538;28;20029;-82
2021/08/24 10:15:35;;;;;;;6.90;3.70;;;;;;;;;;5033943;28;20029;-82
2021/08/24 10:18:10;;;;;;;8.73;3.42;;;;;;;;;;5034469;28;20493;-82
2021/08/24 10:20:42;;;;;;;7.78;3.10;;;;;;;;;;5032045;28;20080;-82
2021/08/24 10:23:14;;;;;;;8.57;3.25;;;;;;;;;;5034921;28;20032;-82
2021/08/24 10:25:47;;;;;;;5.38;2.80;;;;;;;;;;5023036;28;20416;-82
2021/08/24 10:28:23;;;;;;;5.30;2.92;;;;;;;;;;5034533;28;20109;-82
2021/08/24 10:30:52;;;;;;;5.32;2.60;;;;;;;;;;5034498;28;20044;-82
2021/08/24 10:33:38;;;;;;;6.30;3.00;;;;;;;;;;5034778;28;20021;-82
2021/08/24 10:36:26;;;;;;;4.78;2.92;;;;;;;;;;5021360;28;20021;-82
2021/08/24 10:39:18;;;;;;;5.80;3.10;;;;;;;;;;5024107;28;20059;-82
2021/08/24 10:41:48;;;;;;;6.13;3.20;;;;;;;;;;5027051;28;20029;-82
2021/08/24 10:44:19;;;;;;;4.18;2.78;;;;;;;;;;5033062;28;20025;-82
2021/08/24 10:46:54;;;;;;;5.63;2.95;;;;;;;;;;5031939;28;20022;-82
2021/08/24 10:49:20;;;;;;;5.47;2.83;;;;;;;;;;5031926;28;20069;-82
2021/08/24 10:52:16;;;;;;;5.45;2.85;;;;;;;;;;5033998;28;20068;-82
2021/08/24 10:54:51;;;;;;;5.03;2.90;;;;;;;;;;5032846;28;20033;-82
2021/08/24 10:57:38;;;;;;;6.45;3.10;;;;;;;;;;5032754;28;20032;-82
2021/08/24 11:00:20;;;;;;;5.68;3.13;;;;;;;;;;5029635;28;20029;-82
2021/08/24 11:02:49;;;;;;;5.40;3.17;;;;;;;;;;5034029;28;20017;-82
2021/08/24 11:05:39;;;;;;;4.53;2.53;;;;;;;;;;5032716;28;20262;-82
2021/08/24 11:08:16;;;;;;;7.07;3.40;;;;;;;;;;5022580;28;20493;-82
2021/08/24 11:10:46;;;;;;;6.70;2.90;;;;;;;;;;5040853;28;20078;-82
2021/08/24 11:13:55;;;;;;;5.38;3.10;;;;;;;;;;5032812;28;20025;-82
2021/08/24 11:16:40;;;;;;;5.82;3.50;;;;;;;;;;5019444;28;20034;-82
2021/08/24 11:19:43;;;;;;;5.05;3.03;;;;;;;;;;5022407;28;20026;-82
2021/08/24 11:22:34;;;;;;;8.23;3.03;;;;;;;;;;5025118;28;20037;-82
2021/08/24 11:25:27;;;;;;;6.30;3.08;;;;;;;;;;5033636;28;20018;-82
2021/08/24 11:28:14;;;;;;;;;;;;;;;;;;5034200;28;20025;-82
2021/08/24 11:30:53;;;;;;;5.32;3.10;;;;;;;;;;5032562;28;19913;-82
2021/08/24 11:33:34;;;;;;;4.88;3.00;;;;;;;;;;5030464;28;20060;-82
2021/08/24 11:36:06;;;;;;;5.60;2.95;;;;;;;;;;5032447;28;20030;-82
2021/08/24 11:38:39;;;;;;;4.80;3.03;;;;;;;;;;5033469;28;20500;-81
2021/08/24 11:41:06;;;;;;;;;;;;;;;;;;5033616;28;20051;-82
2021/08/24 11:44:07;;;;;;;4.55;2.92;;;;;;;;;;5033519;28;20307;-82
2021/08/24 11:46:41;;;;;;;4.75;2.90;;;;;;;;;;5024311;28;20028;-82
2021/08/24 11:49:14;;;;;;;6.13;3.10;;;;;;;;;;5032061;28;20021;-81
2021/08/24 11:51:47;;;;;;;4.32;2.97;;;;;;;;;;5031745;28;20026;-81
2021/08/24 11:54:32;;;;;;;7.28;3.15;;;;;;;;;;5033383;28;20033;-82
2021/08/24 11:57:18;;;;;;;4.35;2.80;;;;;;;;;;5023223;28;20025;-82
2021/08/24 11:59:51;;;;;;;6.05;2.60;;;;;;;;;;5033116;28;20052;-82
2021/08/24 12:02:24;;;;;;;5.18;2.40;;;;;;;;;;5032509;28;20029;-81
2021/08/24 12:04:52;;;;;;;6.82;2.60;;;;;;;;;;5031785;28;20056;-81
2021/08/24 12:07:35;;;;;;;4.03;2.40;;;;;;;;;;5033144;28;20029;-82
2021/08/24 12:10:24;;;;;;;3.65;2.47;;;;;;;;;;5031588;28;20124;-82
2021/08/24 12:13:06;;;;;;;6.10;2.60;;;;;;;;;;5048189;28;20017;-81
2021/08/24 12:15:46;;;;;;;6.90;2.47;;;;;;;;;;5029202;28;20034;-81
2021/08/24 12:18:17;;;;;;;4.45;2.20;;;;;;;;;;5028255;28;20152;-81
2021/08/24 12:20:57;;;;;;;7.63;2.53;;;;;;;;;;5028944;28;20072;-81
2021/08/24 12:23:41;;;;;;;4.65;2.60;;;;;;;;;;5029376;28;20432;-81
2021/08/24 12:26:24;;;;;;;5.10;2.60;;;;;;;;;;5028366;28;20080;-81
2021/08/24 12:28:52;;;;;;;4.35;2.40;;;;;;;;;;5028681;28;20438;-81
2021/08/24 12:31:37;;;;;;;5.63;2.72;;;;;;;;;;5031263;28;20045;-81
2021/08/24 12:34:34;;;;;;;4.00;2.45;;;;;;;;;;5032814;28;20026;-81
2021/08/24 12:37:26;;;;;;;4.07;2.17;;;;;;;;;;5032520;28;20106;-81
2021/08/24 12:40:21;;;;;;;5.38;1.90;;;;;;;;;;5028247;28;20398;-81
2021/08/24 12:43:01;;;;;;;5.38;1.98;;;;;;;;;;5002819;28;20495;-80
2021/08/24 12:45:31;;;;;;;6.55;2.20;;;;;;;;;;5021525;28;20022;-80
2021/08/24 12:48:17;;;;;;;4.63;2.17;;;;;;;;;;5031531;28;20527;-80
2021/08/24 12:50:47;;;;;;;5.80;2.10;;;;;;;;;;5028131;28;20030;-80
2021/08/24 12:53:27;;;;;;;4.03;2.10;;;;;;;;;;5028045;28;20428;-80
2021/08/24 12:55:54;;;;;;;5.82;2.10;;;;;;;;;;5031379;28;20052;-80
2021/08/24 12:58:24;;;;;;;6.03;2.05;;;;;;;;;;5031272;28;20049;-80
2021/08/24 13:01:14;;;;;;;3.60;1.95;;;;;;;;;;5032646;28;20087;-80
2021/08/24 13:03:53;;;;;;;4.10;1.92;;;;;;;;;;5019177;28;20500;-80
2021/08/24 13:06:21;;;;;;;3.45;1.92;;;;;;;;;;5032703;28;20026;-80
2021/08/24 13:08:50;;;;;;;5.72;2.30;;;;;;;;;;5031157;28;20037;-80
2021/08/24 13:11:28;;;;;;;4.45;2.25;;;;;;;;;;5032342;28;20029;-80
2021/08/24 13:14:03;;;;;;;3.65;2.05;;;;;;;;;;5033295;28;20026;-80
2021/08/24 13:16:37;;;;;;;4.50;2.10;;;;;;;;;;5026034;28;20045;-80
2021/08/24 13:19:13;;;;;;;3.40;1.70;;;;;;;;;;5035967;28;20057;-80
2021/08/24 13:21:51;;;;;;;2.70;1.60;;;;;;;;;;5023056;28;20378;-80
2021/08/24 13:24:29;;;;;;;5.72;2.15;;;;;;;;;;5035826;28;20080;-80
2021/08/24 13:26:59;;;;;;;3.78;1.75;;;;;;;;;;5034874;28;20025;-80
2021/08/24 13:29:27;;;;;;;4.25;2.15;;;;;;;;;;5035806;28;20056;-80
2021/08/24 13:32:17;;;;;;;3.65;1.95;;;;;;;;;;5034298;28;20132;-80
2021/08/24 13:34:54;;;;;;;3.20;1.90;;;;;;;;;;5033619;28;20074;-80
2021/08/24 13:37:38;;;;;;;3.78;2.30;;;;;;;;;;5031531;28;20433;-80
2021/08/24 13:40:25;;;;;;;3.58;1.90;;;;;;;;;;5035393;28;20021;-80
2021/08/24 13:42:51;;;;;;;3.63;1.98;;;;;;;;;;5033593;28;20035;-80
2021/08/24 13:45:30;;;;;;;3.97;2.13;;;;;;;;;;5030893;28;20482;-80
2021/08/24 13:47:58;;;;;;;3.80;2.13;;;;;;;;;;5021109;28;20033;-80
2021/08/24 13:50:33;;;;;;;4.28;2.20;;;;;;;;;;5031681;28;20026;-79
2021/08/24 13:53:15;;;;;;;3.70;2.20;;;;;;;;;;5035237;28;20025;-80
2021/08/24 13:55:42;;;;;;;4.22;2.30;;;;;;;;;;5035232;28;20461;-80
2021/08/24 13:58:17;;;;;;;5.43;2.30;;;;;;;;;;5033712;28;20021;-80
2021/08/24 14:01:13;;;;;;;4.85;2.25;;;;;;;;;;5035267;28;20480;-80
2021/08/24 14:03:46;;;;;;;6.32;2.65;;;;;;;;;;5034521;28;20036;-80
2021/08/24 14:06:13;;;;;;;4.90;2.50;;;;;;;;;;5035299;28;20029;-80
2021/08/24 14:08:42;;;;;;;3.97;2.30;;;;;;;;;;5034909;28;20058;-80
2021/08/24 14:11:10;;;;;;;4.00;2.30;;;;;;;;;;5027028;28;20033;-80
2021/08/24 14:13:42;;;;;;;4.72;2.35;;;;;;;;;;5020391;28;20017;-80
2021/08/24 14:16:29;;;;;;;4.25;2.70;;;;;;;;;;5033678;28;20057;-80
2021/08/24 14:19:00;;;;;;;6.22;2.22;;;;;;;;;;5024510;28;20111;-79
2021/08/24 14:21:28;;;;;;;4.03;2.45;;;;;;;;;;5033471;28;20029;-80
2021/08/24 14:23:58;;;;;;;5.55;2.70;;;;;;;;;;5033382;28;20037;-80
2021/08/24 14:26:28;;;;;;;4.20;2.40;;;;;;;;;;5030115;28;20034;-80
2021/08/24 14:28:55;;;;;;;5.53;2.47;;;;;;;;;;5029779;28;20026;-80
2021/08/24 14:31:24;;;;;;;5.40;2.65;;;;;;;;;;5034463;28;20110;-80
2021/08/24 14:33:52;;;;;;;4.00;2.40;;;;;;;;;;5033309;28;20112;-80
2021/08/24 14:36:20;;;;;;;3.65;2.30;;;;;;;;;;5034443;28;20209;-80
2021/08/24 14:38:50;;;;;;;5.43;2.70;;;;;;;;;;5033096;28;20025;-80
2021/08/24 14:41:17;;;;;;;4.40;2.47;;;;;;;;;;5030020;28;20036;-80
2021/08/24 14:43:52;;;;;;;5.57;2.47;;;;;;;;;;5026069;28;20029;-80
2021/08/24 14:46:24;;;;;;;4.40;2.28;;;;;;;;;;5024123;28;20098;-80
2021/08/24 14:48:56;;;;;;;4.07;2.10;;;;;;;;;;5034115;28;20029;-80
2021/08/24 14:51:22;;;;;;;4.22;2.35;;;;;;;;;;5033045;28;20037;-80
2021/08/24 14:53:53;;;;;;;4.88;2.40;;;;;;;;;;5033523;28;20036;-80
2021/08/24 14:56:21;;;;;;;4.10;2.40;;;;;;;;;;5034248;28;20029;-80
2021/08/24 14:59:18;;;;;;;5.13;2.60;;;;;;;;;;5032770;28;20053;-80
2021/08/24 15:02:12;;;;;;;4.85;2.25;;;;;;;;;;5032904;28;20424;-80
2021/08/24 15:04:41;;;;;;;;;;;;;;;;;;5033230;28;20025;-80
2021/08/24 15:07:10;;;;;;;3.90;2.40;;;;;;;;;;5034022;28;19962;-79
2021/08/24 15:09:44;;;;;;;3.75;2.33;;;;;;;;;;5033854;28;20036;-79
2021/08/24 15:12:24;;;;;;;5.75;2.30;;;;;;;;;;5032442;28;20465;-79
2021/08/24 15:14:53;;;;;;;4.40;2.22;;;;;;;;;;5033890;28;20504;-79